Pagrindinis puslapis
METAR-TAF:

METAR-TAF

Oro uostai :

Santa Krusas, Rio de Janeiro, Brazilija

platuma: 22-56S, ilguma: 043-43W, Aukštis: 3 m

Dabartinis oras

Ataskaita buvo paskelbta 1 valandą ir 17 minutes, ne 22:00 UTC
Vėjas 3 kt iš Pietų/Pietvakarių
Temperatūra 25°C
Drėgmė 79%
Slėgis 1013 hPa
Matomumas 10 km arba daugiau
nėra debesų žemiau 1500 m ir nėra kamuolinių lietaus debesų

METAR: SBSC 162200Z 20003KT CAVOK 25/21 Q1013

Laikas: 20:17 (23:17 UTC)

Prognozė

Ataskaita buvo paskelbta 7 valandos ir 17 minutes, ne 16:00 UTC
Prognozė galioja nuo 16 metu 18 UTC su 17 metu 06 UTC
Vėjas 7 kt iš Šiaurės Vakarų
Matomumas 10 km arba daugiau
nėra debesų žemiau 1500 m ir nėra kamuolinių lietaus debesų
Tapsmas
nuo 16 metu 19 UTC su 16 metu 21 UTC
Vėjas 10 kt iš Rytų
Tapsmas
nuo 17 metu 00 UTC su 17 metu 02 UTC
Vėjas 5 kt iš Šiaurės

TAF: SBSC 161600Z 1618/1706 32007KT CAVOK TX32/1618Z TN20/1705Z BECMG 1619/1621 09010KT BECMG 1700/1702 36005KT RMK PDU

Orai ataskaitas ir orų prognozės (METAR, TAF).

turimą stotys yra geltonos ir raudonos taškus žemėlapyje.

Perkelti pele per norėdami pamatyti stoties vardą.

Tada spustelėkite, norėdami matyti oro stebėjimo ir prognozės.

Norėdami pakeisti žemėlapį: spustelėkite ant žalios mygtukų su juodo kryžiaus žemyn,; žalią mygtuką su brūkšneliu, jei norite nutolinti; arba žalių rodyklių gretimoms žemėlapius.


METAR-TAF: